createdAt,value
2022-09-28T03:54:39.179Z,99121.97
2022-09-28T03:57:41.625Z,99127.31
2022-09-28T04:00:43.727Z,99125.63
2022-09-28T04:03:47.811Z,99125.66
2022-09-28T04:06:49.967Z,99128.25
2022-09-28T04:09:52.435Z,99130.00
2022-09-28T04:12:56.028Z,99127.41
2022-09-28T04:16:00.568Z,99122.28
2022-09-28T04:19:04.180Z,99117.94
2022-09-28T04:22:06.522Z,99123.19
2022-09-28T04:25:09.851Z,99132.06
2022-09-28T04:28:31.770Z,99136.34
2022-09-28T04:31:54.318Z,99124.19
2022-09-28T04:34:57.895Z,99123.41
2022-09-28T04:38:00.134Z,99126.94
2022-09-28T04:41:02.909Z,99124.34
2022-09-28T04:44:05.229Z,99132.22
2022-09-28T04:47:07.553Z,99128.72
2022-09-28T04:50:10.337Z,99123.50
2022-09-28T04:53:35.106Z,99123.47
2022-09-28T04:56:37.242Z,99123.50
2022-09-28T04:59:39.657Z,99120.88
2022-09-28T05:02:41.729Z,99122.63
2022-09-28T05:05:45.549Z,99120.94
2022-09-28T05:08:50.156Z,99125.31
2022-09-28T05:11:53.019Z,99132.22
2022-09-28T05:14:56.541Z,99131.41
2022-09-28T05:17:58.867Z,99132.28
2022-09-28T05:21:01.693Z,99136.66
2022-09-28T05:24:07.351Z,99140.19
2022-09-28T05:27:09.637Z,99138.44
2022-09-28T05:30:12.226Z,99150.62
2022-09-28T05:33:17.602Z,99148.00
2022-09-28T05:36:20.186Z,99158.41
2022-09-28T05:39:22.327Z,99152.28
2022-09-28T05:42:24.608Z,99151.44
2022-09-28T05:45:26.795Z,99156.63
2022-09-28T05:48:29.665Z,99148.75
2022-09-28T05:51:31.802Z,99133.91
2022-09-28T05:54:34.142Z,99139.13
2022-09-28T05:57:36.412Z,99144.28
2022-09-28T06:00:39.336Z,99136.44
2022-09-28T06:03:42.079Z,99139.91
2022-09-28T06:06:44.165Z,99135.62
2022-09-28T06:09:46.861Z,99132.13
2022-09-28T06:12:53.269Z,99139.91
2022-09-28T06:15:55.718Z,99132.81
2022-09-28T06:18:57.901Z,99138.88
2022-09-28T06:22:00.899Z,99129.28
2022-09-28T06:25:04.349Z,99134.47
2022-09-28T06:28:10.714Z,99132.72
2022-09-28T06:31:13.103Z,99139.63
2022-09-28T06:34:16.158Z,99141.25
2022-09-28T06:37:19.343Z,99141.19
2022-09-28T06:40:23.130Z,99148.09
2022-09-28T06:43:25.658Z,99141.94
2022-09-28T06:46:39.157Z,99153.13
2022-09-28T06:49:42.217Z,99139.87
2022-09-28T06:52:45.281Z,99144.91
2022-09-28T06:55:50.337Z,99144.75
2022-09-28T06:58:52.782Z,99149.88
2022-09-28T07:01:54.914Z,99152.53
2022-09-28T07:04:57.383Z,99154.16
2022-09-28T07:08:01.924Z,99147.13
2022-09-28T07:11:07.939Z,99147.00
2022-09-28T07:14:22.482Z,99145.03
2022-09-28T07:17:33.006Z,99153.84
2022-09-28T07:20:49.233Z,99150.28
2022-09-28T07:23:54.678Z,99155.41
2022-09-28T07:26:58.558Z,99145.72
2022-09-28T07:30:01.289Z,99144.66
2022-09-28T07:33:07.040Z,99138.28
2022-09-28T07:36:10.666Z,99145.91
2022-09-28T07:39:12.845Z,99137.81
2022-09-28T07:42:15.506Z,99135.94
2022-09-28T07:45:25.920Z,99122.50
2022-09-28T07:48:28.477Z,99124.16
2022-09-28T07:51:32.291Z,99127.69
2022-09-28T07:54:36.227Z,99130.03
2022-09-28T07:57:49.795Z,99136.06
2022-09-28T08:00:56.268Z,99135.78
2022-09-28T08:03:59.876Z,99139.94
2022-09-28T08:07:03.030Z,99138.59
2022-09-28T08:10:07.211Z,99137.47
2022-09-28T08:13:10.543Z,99145.22
2022-09-28T08:16:13.734Z,99132.78
2022-09-28T08:19:15.995Z,99121.09
2022-09-28T08:22:19.865Z,99118.91
2022-09-28T08:25:25.332Z,99111.06
2022-09-28T08:28:27.979Z,99102.31
2022-09-28T08:31:31.097Z,99109.47
2022-09-28T08:34:41.210Z,99102.63
2022-09-28T08:37:54.626Z,99103.25
2022-09-28T08:41:23.412Z,99096.88
2022-09-28T08:44:31.922Z,99117.75
2022-09-28T08:48:20.985Z,99127.88
2022-09-28T08:51:35.805Z,99128.44
2022-09-28T08:55:02.491Z,99123.34
2022-09-28T08:58:17.290Z,99133.88
2022-09-28T09:01:21.259Z,99130.50
2022-09-28T09:04:23.377Z,99116.56
2022-09-28T09:07:49.543Z,99113.84
2022-09-28T09:11:04.240Z,99109.31
2022-09-28T09:14:32.834Z,99124.00
2022-09-28T09:18:05.103Z,99111.56
2022-09-28T09:21:15.487Z,99104.72
2022-09-28T09:24:35.668Z,99109.87
2022-09-28T09:27:57.592Z,99105.31
2022-09-28T09:31:26.574Z,99100.69
2022-09-28T09:34:43.274Z,99097.91
2022-09-28T09:38:28.500Z,99099.31
2022-09-28T09:42:07.770Z,99097.12
2022-09-28T09:45:46.002Z,99097.31
2022-09-28T09:49:03.480Z,99101.03
2022-09-28T09:52:21.923Z,99097.16
2022-09-28T09:55:38.596Z,99101.66
2022-09-28T09:58:50.906Z,99105.06
2022-09-28T10:01:55.836Z,99103.41
2022-09-28T10:05:10.590Z,99105.41
2022-09-28T10:08:17.839Z,99104.22
2022-09-28T10:11:27.070Z,99101.94
2022-09-28T10:14:30.979Z,99110.22
2022-09-28T10:17:37.118Z,99111.44
2022-09-28T10:20:50.670Z,99107.88
2022-09-28T10:23:59.248Z,99114.66
2022-09-28T10:27:18.379Z,99113.59
2022-09-28T10:30:23.867Z,99114.16
2022-09-28T10:33:33.770Z,99117.41
2022-09-28T10:36:51.890Z,99112.16
2022-09-28T10:39:55.889Z,99108.69
2022-09-28T10:43:36.748Z,99109.72
2022-09-28T10:46:41.336Z,99107.00
2022-09-28T10:49:48.424Z,99109.63
2022-09-28T10:52:50.712Z,99117.37
2022-09-28T10:56:04.636Z,99116.06
2022-09-28T10:59:33.419Z,99108.25
2022-09-28T11:02:40.163Z,99102.03
2022-09-28T11:05:54.079Z,99099.53
2022-09-28T11:09:03.922Z,99101.06
2022-09-28T11:12:14.969Z,99094.81
2022-09-28T11:15:21.201Z,99080.47
2022-09-28T11:18:32.265Z,99088.56
2022-09-28T11:21:43.129Z,99071.66
2022-09-28T11:24:45.802Z,99076.00
2022-09-28T11:27:51.521Z,99074.53
2022-09-28T11:30:54.512Z,99069.53
2022-09-28T11:34:31.069Z,99060.25
2022-09-28T11:37:55.890Z,99064.94
2022-09-28T11:41:21.135Z,99070.03
2022-09-28T11:44:37.361Z,99069.88
2022-09-28T11:47:55.813Z,99060.66
2022-09-28T11:51:12.187Z,99067.12
2022-09-28T11:54:47.358Z,99059.84
2022-09-28T11:58:12.939Z,99060.53
2022-09-28T12:01:35.632Z,99047.00
2022-09-28T12:04:44.275Z,99054.28
2022-09-28T12:07:59.061Z,99030.84
2022-09-28T12:11:15.651Z,99034.75
2022-09-28T12:14:29.887Z,99024.09
2022-09-28T12:17:54.444Z,99017.97
2022-09-28T12:21:38.506Z,99021.66
2022-09-28T12:24:45.505Z,99020.88
2022-09-28T12:27:53.527Z,99021.31
2022-09-28T12:31:02.234Z,99022.47
2022-09-28T12:34:04.999Z,99019.84
2022-09-28T12:37:40.387Z,99003.31
2022-09-28T12:41:02.579Z,98996.88
2022-09-28T12:44:47.146Z,98996.53
2022-09-28T12:47:59.190Z,98996.16
2022-09-28T12:51:18.418Z,99001.78
2022-09-28T12:54:26.382Z,99005.06
2022-09-28T12:57:58.170Z,99006.84
2022-09-28T13:01:29.974Z,98994.69
2022-09-28T13:04:55.658Z,98996.66
2022-09-28T13:08:19.501Z,98998.50
2022-09-28T13:11:46.860Z,98992.53
2022-09-28T13:15:03.780Z,98989.03
2022-09-28T13:18:44.475Z,98985.59
2022-09-28T13:22:14.709Z,98984.56
2022-09-28T13:25:20.688Z,98983.81
2022-09-28T13:28:27.309Z,98988.19
2022-09-28T13:31:34.935Z,98997.38
2022-09-28T13:34:39.587Z,98997.59
2022-09-28T13:37:41.908Z,98985.09
2022-09-28T13:41:06.637Z,98986.63
2022-09-28T13:44:36.870Z,98976.25
2022-09-28T13:47:51.620Z,98981.34
2022-09-28T13:51:12.340Z,98985.13
2022-09-28T13:54:30.802Z,98989.44
2022-09-28T13:57:36.073Z,98989.31
2022-09-28T14:00:47.014Z,98984.16
2022-09-28T14:04:18.928Z,98984.50
2022-09-28T14:07:45.598Z,98973.25
2022-09-28T14:10:51.709Z,98980.44
2022-09-28T14:14:11.708Z,98989.28
2022-09-28T14:17:27.270Z,98989.03
2022-09-28T14:20:31.326Z,98984.00
2022-09-28T14:24:02.230Z,98980.56
2022-09-28T14:27:23.033Z,98978.41
2022-09-28T14:30:35.311Z,98974.22
2022-09-28T14:33:39.258Z,98967.31
2022-09-28T14:37:06.577Z,98970.88
2022-09-28T14:40:35.536Z,98970.06
2022-09-28T14:43:43.591Z,98968.28
2022-09-28T14:46:47.342Z,98961.66
2022-09-28T14:50:00.582Z,98969.81
2022-09-28T14:53:23.842Z,98962.47
2022-09-28T14:56:32.615Z,98976.97
2022-09-28T14:59:42.807Z,98970.91
2022-09-28T15:02:51.793Z,98962.03
2022-09-28T15:05:54.304Z,98965.75
2022-09-28T15:08:56.697Z,98957.97
2022-09-28T15:11:59.949Z,98969.06
2022-09-28T15:15:05.474Z,98959.25
2022-09-28T15:18:43.751Z,98955.97
2022-09-28T15:21:48.537Z,98959.47
2022-09-28T15:25:01.370Z,98956.13
2022-09-28T15:28:19.284Z,98952.13
2022-09-28T15:31:24.267Z,98949.72
